Disclaimer

Please do not use the information listed here in-flight or in-navigation, as they are not provided to us by the airports but are provided by volunteers, so they might be outdated.

Search


Regions


Airport information page

No radio frequency information is available.

Airport informations:
Latitude: 10° 17' 29.49" S
Longitude: 048° 21' 25.10" W
Elevation: 774 feet - 236 meters
Operating hours: N/A
Operating agency: Civil government, landing fees and diplomatic clearance may be required
Timezone: UTC-3(-2DT)
Fuel: N/A

Runway information:
14/32 - 8185 x 148 feet< - >2495 x 45 meters

Recent METARs:
SBPJ 201300Z 24006KT 9999 FEW030 29/24 Q1013
SBPJ 201400Z 21007KT 9999 FEW030 31/24 Q1013
SBPJ 201400Z 21007KT 9999 FEW030 31/24 Q1013

Airport on the map: